sensor_id;sensor_type;location;lat;lon;timestamp;P1;durP1;ratioP1;P2;durP2;ratioP2
9559;SDS011;4818;50.860;4.648;2022-12-16T00:02:14;74.85;;;33.88;;
9559;SDS011;4818;50.860;4.648;2022-12-16T00:04:41;68.97;;;34.22;;
9559;SDS011;4818;50.860;4.648;2022-12-16T00:07:07;65.25;;;31.75;;
9559;SDS011;4818;50.860;4.648;2022-12-16T00:09:33;68.22;;;33.50;;
9559;SDS011;4818;50.860;4.648;2022-12-16T00:11:59;81.13;;;35.00;;
9559;SDS011;4818;50.860;4.648;2022-12-16T00:14:26;65.45;;;31.85;;
9559;SDS011;4818;50.860;4.648;2022-12-16T00:16:53;73.40;;;34.92;;
9559;SDS011;4818;50.860;4.648;2022-12-16T00:19:19;67.45;;;32.35;;
9559;SDS011;4818;50.860;4.648;2022-12-16T00:21:45;68.22;;;33.30;;
9559;SDS011;4818;50.860;4.648;2022-12-16T00:24:11;73.03;;;35.17;;
9559;SDS011;4818;50.860;4.648;2022-12-16T00:26:37;65.95;;;33.20;;
9559;SDS011;4818;50.860;4.648;2022-12-16T00:29:03;59.95;;;31.23;;
9559;SDS011;4818;50.860;4.648;2022-12-16T00:31:30;64.88;;;30.83;;
9559;SDS011;4818;50.860;4.648;2022-12-16T00:33:56;67.68;;;33.13;;
9559;SDS011;4818;50.860;4.648;2022-12-16T00:36:22;71.47;;;34.92;;
9559;SDS011;4818;50.860;4.648;2022-12-16T00:38:50;67.10;;;32.60;;
9559;SDS011;4818;50.860;4.648;2022-12-16T00:41:17;65.85;;;32.42;;
9559;SDS011;4818;50.860;4.648;2022-12-16T00:43:43;67.57;;;31.33;;
9559;SDS011;4818;50.860;4.648;2022-12-16T00:46:09;70.22;;;33.28;;
9559;SDS011;4818;50.860;4.648;2022-12-16T00:48:35;70.40;;;32.60;;
9559;SDS011;4818;50.860;4.648;2022-12-16T00:51:01;67.68;;;33.30;;
9559;SDS011;4818;50.860;4.648;2022-12-16T00:53:27;64.30;;;32.08;;
9559;SDS011;4818;50.860;4.648;2022-12-16T00:56:03;73.28;;;35.38;;
9559;SDS011;4818;50.860;4.648;2022-12-16T00:58:30;68.13;;;33.40;;
9559;SDS011;4818;50.860;4.648;2022-12-16T01:00:56;65.15;;;30.08;;
9559;SDS011;4818;50.860;4.648;2022-12-16T01:03:22;69.45;;;34.30;;
9559;SDS011;4818;50.860;4.648;2022-12-16T01:05:48;70.43;;;33.40;;
9559;SDS011;4818;50.860;4.648;2022-12-16T01:08:14;63.38;;;31.60;;
9559;SDS011;4818;50.860;4.648;2022-12-16T01:10:40;64.40;;;31.40;;
9559;SDS011;4818;50.860;4.648;2022-12-16T01:13:06;66.35;;;34.33;;
9559;SDS011;4818;50.860;4.648;2022-12-16T01:15:33;66.95;;;32.05;;
9559;SDS011;4818;50.860;4.648;2022-12-16T01:17:59;62.10;;;31.08;;
9559;SDS011;4818;50.860;4.648;2022-12-16T01:20:25;74.72;;;34.30;;
9559;SDS011;4818;50.860;4.648;2022-12-16T01:22:51;60.85;;;32.20;;
9559;SDS011;4818;50.860;4.648;2022-12-16T01:25:18;60.97;;;30.65;;
9559;SDS011;4818;50.860;4.648;2022-12-16T01:27:44;60.78;;;29.90;;
9559;SDS011;4818;50.860;4.648;2022-12-16T01:30:11;68.63;;;31.75;;
9559;SDS011;4818;50.860;4.648;2022-12-16T01:32:37;57.92;;;29.23;;
9559;SDS011;4818;50.860;4.648;2022-12-16T01:35:03;62.25;;;30.08;;
9559;SDS011;4818;50.860;4.648;2022-12-16T01:37:30;58.08;;;29.95;;
9559;SDS011;4818;50.860;4.648;2022-12-16T01:39:56;68.50;;;31.77;;
9559;SDS011;4818;50.860;4.648;2022-12-16T01:42:22;66.28;;;32.60;;
9559;SDS011;4818;50.860;4.648;2022-12-16T01:44:52;58.35;;;31.10;;
9559;SDS011;4818;50.860;4.648;2022-12-16T01:47:21;63.08;;;30.83;;
9559;SDS011;4818;50.860;4.648;2022-12-16T01:49:49;61.90;;;32.25;;
9559;SDS011;4818;50.860;4.648;2022-12-16T01:52:19;65.05;;;31.98;;
9559;SDS011;4818;50.860;4.648;2022-12-16T01:54:48;65.68;;;33.45;;
9559;SDS011;4818;50.860;4.648;2022-12-16T01:59:42;60.70;;;30.25;;
9559;SDS011;4818;50.860;4.648;2022-12-16T02:02:10;65.18;;;32.65;;
9559;SDS011;4818;50.860;4.648;2022-12-16T02:04:36;60.53;;;29.77;;
9559;SDS011;4818;50.860;4.648;2022-12-16T02:07:25;61.10;;;30.10;;
9559;SDS011;4818;50.860;4.648;2022-12-16T02:09:51;68.20;;;32.65;;
9559;SDS011;4818;50.860;4.648;2022-12-16T02:12:24;59.72;;;30.98;;
9559;SDS011;4818;50.860;4.648;2022-12-16T02:17:27;62.15;;;33.53;;
9559;SDS011;4818;50.860;4.648;2022-12-16T02:22:56;68.75;;;33.15;;
9559;SDS011;4818;50.860;4.648;2022-12-16T02:35:25;61.95;;;30.20;;
9559;SDS011;4818;50.860;4.648;2022-12-16T02:40:41;66.55;;;30.45;;
9559;SDS011;4818;50.860;4.648;2022-12-16T02:43:11;64.32;;;31.58;;
9559;SDS011;4818;50.860;4.648;2022-12-16T02:45:40;58.00;;;29.90;;
9559;SDS011;4818;50.860;4.648;2022-12-16T02:48:06;56.30;;;29.10;;
9559;SDS011;4818;50.860;4.648;2022-12-16T02:50:39;68.07;;;32.90;;
9559;SDS011;4818;50.860;4.648;2022-12-16T02:53:08;58.42;;;30.10;;
9559;SDS011;4818;50.860;4.648;2022-12-16T02:55:42;62.78;;;31.23;;
9559;SDS011;4818;50.860;4.648;2022-12-16T03:00:49;65.72;;;30.88;;
9559;SDS011;4818;50.860;4.648;2022-12-16T03:03:18;63.88;;;31.67;;
9559;SDS011;4818;50.860;4.648;2022-12-16T03:05:45;58.55;;;31.17;;
9559;SDS011;4818;50.860;4.648;2022-12-16T03:08:14;60.60;;;31.58;;
9559;SDS011;4818;50.860;4.648;2022-12-16T03:10:47;56.67;;;29.67;;
9559;SDS011;4818;50.860;4.648;2022-12-16T03:13:16;62.28;;;30.98;;
9559;SDS011;4818;50.860;4.648;2022-12-16T03:15:43;65.43;;;31.80;;
9559;SDS011;4818;50.860;4.648;2022-12-16T03:18:11;61.50;;;29.88;;
9559;SDS011;4818;50.860;4.648;2022-12-16T03:20:40;63.88;;;31.63;;
9559;SDS011;4818;50.860;4.648;2022-12-16T03:23:11;61.58;;;31.65;;
9559;SDS011;4818;50.860;4.648;2022-12-16T03:25:40;59.20;;;30.92;;
9559;SDS011;4818;50.860;4.648;2022-12-16T03:28:20;58.50;;;30.00;;
9559;SDS011;4818;50.860;4.648;2022-12-16T03:30:51;58.08;;;29.15;;
9559;SDS011;4818;50.860;4.648;2022-12-16T03:33:27;59.78;;;31.38;;
9559;SDS011;4818;50.860;4.648;2022-12-16T03:36:01;61.80;;;31.88;;
9559;SDS011;4818;50.860;4.648;2022-12-16T03:38:30;62.95;;;32.90;;
9559;SDS011;4818;50.860;4.648;2022-12-16T03:40:57;65.63;;;32.60;;
9559;SDS011;4818;50.860;4.648;2022-12-16T03:43:25;55.38;;;29.88;;
9559;SDS011;4818;50.860;4.648;2022-12-16T03:45:52;62.00;;;31.60;;
9559;SDS011;4818;50.860;4.648;2022-12-16T03:48:21;61.92;;;31.33;;
9559;SDS011;4818;50.860;4.648;2022-12-16T03:50:47;50.67;;;23.70;;
9559;SDS011;4818;50.860;4.648;2022-12-16T03:53:14;59.55;;;31.23;;
9559;SDS011;4818;50.860;4.648;2022-12-16T03:55:40;59.47;;;29.58;;
9559;SDS011;4818;50.860;4.648;2022-12-16T03:58:06;55.35;;;28.95;;
9559;SDS011;4818;50.860;4.648;2022-12-16T04:00:32;59.75;;;29.25;;
9559;SDS011;4818;50.860;4.648;2022-12-16T04:02:58;59.47;;;28.25;;
9559;SDS011;4818;50.860;4.648;2022-12-16T04:05:24;59.50;;;31.40;;
9559;SDS011;4818;50.860;4.648;2022-12-16T04:07:50;54.53;;;30.42;;
9559;SDS011;4818;50.860;4.648;2022-12-16T04:10:16;57.85;;;28.75;;
9559;SDS011;4818;50.860;4.648;2022-12-16T04:13:02;66.95;;;32.08;;
9559;SDS011;4818;50.860;4.648;2022-12-16T04:15:47;62.05;;;32.63;;
9559;SDS011;4818;50.860;4.648;2022-12-16T04:18:32;58.30;;;28.58;;
9559;SDS011;4818;50.860;4.648;2022-12-16T04:21:17;58.13;;;29.30;;
9559;SDS011;4818;50.860;4.648;2022-12-16T04:24:02;66.88;;;31.20;;
9559;SDS011;4818;50.860;4.648;2022-12-16T04:26:44;56.65;;;25.63;;
9559;SDS011;4818;50.860;4.648;2022-12-16T04:29:29;56.55;;;26.08;;
9559;SDS011;4818;50.860;4.648;2022-12-16T04:31:56;56.00;;;26.58;;
9559;SDS011;4818;50.860;4.648;2022-12-16T04:34:23;56.58;;;25.35;;
9559;SDS011;4818;50.860;4.648;2022-12-16T04:36:57;71.40;;;28.85;;
9559;SDS011;4818;50.860;4.648;2022-12-16T04:39:42;61.40;;;26.35;;
9559;SDS011;4818;50.860;4.648;2022-12-16T04:42:27;73.10;;;28.48;;
9559;SDS011;4818;50.860;4.648;2022-12-16T04:45:12;74.72;;;29.35;;
9559;SDS011;4818;50.860;4.648;2022-12-16T04:47:57;70.75;;;28.95;;
9559;SDS011;4818;50.860;4.648;2022-12-16T04:50:43;67.60;;;28.65;;
9559;SDS011;4818;50.860;4.648;2022-12-16T04:53:28;68.32;;;28.98;;
9559;SDS011;4818;50.860;4.648;2022-12-16T04:56:12;69.90;;;28.92;;
9559;SDS011;4818;50.860;4.648;2022-12-16T04:58:57;76.00;;;32.47;;
9559;SDS011;4818;50.860;4.648;2022-12-16T05:01:42;68.00;;;31.33;;
9559;SDS011;4818;50.860;4.648;2022-12-16T05:04:27;68.35;;;29.75;;
9559;SDS011;4818;50.860;4.648;2022-12-16T05:07:12;67.45;;;29.58;;
9559;SDS011;4818;50.860;4.648;2022-12-16T05:09:56;64.65;;;28.35;;
9559;SDS011;4818;50.860;4.648;2022-12-16T05:12:41;72.35;;;30.90;;
9559;SDS011;4818;50.860;4.648;2022-12-16T05:15:26;68.47;;;30.88;;
9559;SDS011;4818;50.860;4.648;2022-12-16T05:18:11;71.53;;;30.13;;
9559;SDS011;4818;50.860;4.648;2022-12-16T05:20:57;68.95;;;29.17;;
9559;SDS011;4818;50.860;4.648;2022-12-16T05:23:42;66.07;;;29.25;;
9559;SDS011;4818;50.860;4.648;2022-12-16T05:26:27;76.53;;;31.02;;
9559;SDS011;4818;50.860;4.648;2022-12-16T05:29:12;70.13;;;30.15;;
9559;SDS011;4818;50.860;4.648;2022-12-16T05:31:57;71.70;;;30.13;;
9559;SDS011;4818;50.860;4.648;2022-12-16T05:34:41;72.65;;;30.48;;
9559;SDS011;4818;50.860;4.648;2022-12-16T05:37:26;69.18;;;30.95;;
9559;SDS011;4818;50.860;4.648;2022-12-16T05:40:10;86.00;;;31.38;;
9559;SDS011;4818;50.860;4.648;2022-12-16T05:42:55;79.07;;;32.47;;
9559;SDS011;4818;50.860;4.648;2022-12-16T05:45:40;66.80;;;28.83;;
9559;SDS011;4818;50.860;4.648;2022-12-16T05:48:25;77.90;;;30.73;;
9559;SDS011;4818;50.860;4.648;2022-12-16T05:51:10;76.53;;;30.90;;
9559;SDS011;4818;50.860;4.648;2022-12-16T05:53:55;79.88;;;29.77;;
9559;SDS011;4818;50.860;4.648;2022-12-16T05:56:40;79.60;;;30.38;;
9559;SDS011;4818;50.860;4.648;2022-12-16T05:59:25;76.20;;;29.13;;
9559;SDS011;4818;50.860;4.648;2022-12-16T06:02:09;76.88;;;29.27;;
9559;SDS011;4818;50.860;4.648;2022-12-16T06:04:54;74.68;;;27.52;;
9559;SDS011;4818;50.860;4.648;2022-12-16T06:07:39;66.50;;;25.63;;
9559;SDS011;4818;50.860;4.648;2022-12-16T06:10:23;70.68;;;26.85;;
9559;SDS011;4818;50.860;4.648;2022-12-16T06:13:08;66.65;;;27.55;;
9559;SDS011;4818;50.860;4.648;2022-12-16T06:15:53;61.22;;;24.25;;
9559;SDS011;4818;50.860;4.648;2022-12-16T06:18:37;65.47;;;24.90;;
9559;SDS011;4818;50.860;4.648;2022-12-16T06:21:22;63.63;;;25.42;;
9559;SDS011;4818;50.860;4.648;2022-12-16T06:24:07;52.97;;;23.67;;
9559;SDS011;4818;50.860;4.648;2022-12-16T06:26:51;68.95;;;25.42;;
9559;SDS011;4818;50.860;4.648;2022-12-16T06:29:36;69.60;;;27.92;;
9559;SDS011;4818;50.860;4.648;2022-12-16T06:32:21;63.30;;;26.55;;
9559;SDS011;4818;50.860;4.648;2022-12-16T06:35:06;64.28;;;25.63;;
9559;SDS011;4818;50.860;4.648;2022-12-16T06:37:50;65.03;;;26.85;;
9559;SDS011;4818;50.860;4.648;2022-12-16T06:40:35;64.72;;;25.17;;
9559;SDS011;4818;50.860;4.648;2022-12-16T06:43:20;65.00;;;25.23;;
9559;SDS011;4818;50.860;4.648;2022-12-16T06:46:15;56.15;;;25.27;;
9559;SDS011;4818;50.860;4.648;2022-12-16T06:49:00;68.68;;;27.20;;
9559;SDS011;4818;50.860;4.648;2022-12-16T06:51:45;56.08;;;24.67;;
9559;SDS011;4818;50.860;4.648;2022-12-16T06:54:30;63.33;;;25.95;;
9559;SDS011;4818;50.860;4.648;2022-12-16T06:57:18;57.25;;;25.17;;
9559;SDS011;4818;50.860;4.648;2022-12-16T07:00:03;59.08;;;26.08;;
9559;SDS011;4818;50.860;4.648;2022-12-16T07:02:48;63.00;;;25.55;;
9559;SDS011;4818;50.860;4.648;2022-12-16T07:05:32;67.35;;;26.98;;
9559;SDS011;4818;50.860;4.648;2022-12-16T07:08:17;50.83;;;22.27;;
9559;SDS011;4818;50.860;4.648;2022-12-16T07:11:02;54.92;;;22.15;;
9559;SDS011;4818;50.860;4.648;2022-12-16T07:13:47;48.05;;;21.48;;
9559;SDS011;4818;50.860;4.648;2022-12-16T07:16:31;58.53;;;24.42;;
9559;SDS011;4818;50.860;4.648;2022-12-16T07:19:16;50.88;;;22.77;;
9559;SDS011;4818;50.860;4.648;2022-12-16T07:22:01;44.58;;;19.92;;
9559;SDS011;4818;50.860;4.648;2022-12-16T07:24:46;53.22;;;21.30;;
9559;SDS011;4818;50.860;4.648;2022-12-16T07:27:31;47.78;;;21.23;;
9559;SDS011;4818;50.860;4.648;2022-12-16T07:30:15;44.30;;;20.80;;
9559;SDS011;4818;50.860;4.648;2022-12-16T07:33:00;48.20;;;22.15;;
9559;SDS011;4818;50.860;4.648;2022-12-16T07:35:45;51.92;;;23.55;;
9559;SDS011;4818;50.860;4.648;2022-12-16T07:38:30;47.40;;;20.70;;
9559;SDS011;4818;50.860;4.648;2022-12-16T07:41:14;45.63;;;20.42;;
9559;SDS011;4818;50.860;4.648;2022-12-16T07:44:04;51.00;;;21.67;;
9559;SDS011;4818;50.860;4.648;2022-12-16T07:46:49;46.83;;;20.45;;
9559;SDS011;4818;50.860;4.648;2022-12-16T07:49:34;51.90;;;20.50;;
9559;SDS011;4818;50.860;4.648;2022-12-16T07:52:19;49.33;;;21.20;;
9559;SDS011;4818;50.860;4.648;2022-12-16T07:55:03;45.80;;;19.30;;
9559;SDS011;4818;50.860;4.648;2022-12-16T07:57:49;45.72;;;20.90;;
9559;SDS011;4818;50.860;4.648;2022-12-16T08:00:34;56.05;;;23.95;;
9559;SDS011;4818;50.860;4.648;2022-12-16T08:03:18;47.33;;;23.35;;
9559;SDS011;4818;50.860;4.648;2022-12-16T08:06:03;54.00;;;22.80;;
9559;SDS011;4818;50.860;4.648;2022-12-16T08:08:48;56.05;;;22.75;;
9559;SDS011;4818;50.860;4.648;2022-12-16T08:11:33;46.88;;;22.50;;
9559;SDS011;4818;50.860;4.648;2022-12-16T08:14:17;51.67;;;21.42;;
9559;SDS011;4818;50.860;4.648;2022-12-16T08:17:02;53.63;;;23.05;;
9559;SDS011;4818;50.860;4.648;2022-12-16T08:19:47;49.65;;;22.77;;
9559;SDS011;4818;50.860;4.648;2022-12-16T08:22:32;48.92;;;19.55;;
9559;SDS011;4818;50.860;4.648;2022-12-16T08:25:17;44.67;;;19.92;;
9559;SDS011;4818;50.860;4.648;2022-12-16T08:28:01;45.63;;;21.45;;
9559;SDS011;4818;50.860;4.648;2022-12-16T08:30:50;51.53;;;21.67;;
9559;SDS011;4818;50.860;4.648;2022-12-16T08:33:35;49.50;;;20.88;;
9559;SDS011;4818;50.860;4.648;2022-12-16T08:36:20;43.38;;;20.63;;
9559;SDS011;4818;50.860;4.648;2022-12-16T08:39:05;45.30;;;21.15;;
9559;SDS011;4818;50.860;4.648;2022-12-16T08:41:49;45.35;;;19.92;;
9559;SDS011;4818;50.860;4.648;2022-12-16T08:44:34;45.35;;;21.25;;
9559;SDS011;4818;50.860;4.648;2022-12-16T08:47:19;39.17;;;18.48;;
9559;SDS011;4818;50.860;4.648;2022-12-16T08:50:04;42.60;;;19.27;;
9559;SDS011;4818;50.860;4.648;2022-12-16T08:52:48;46.65;;;20.02;;
9559;SDS011;4818;50.860;4.648;2022-12-16T08:55:33;47.40;;;21.50;;
9559;SDS011;4818;50.860;4.648;2022-12-16T08:58:18;44.28;;;20.00;;
9559;SDS011;4818;50.860;4.648;2022-12-16T09:01:03;48.38;;;21.30;;
9559;SDS011;4818;50.860;4.648;2022-12-16T09:03:47;44.05;;;20.58;;
9559;SDS011;4818;50.860;4.648;2022-12-16T09:06:32;44.10;;;21.15;;
9559;SDS011;4818;50.860;4.648;2022-12-16T09:09:17;44.25;;;20.55;;
9559;SDS011;4818;50.860;4.648;2022-12-16T09:12:01;46.08;;;21.00;;
9559;SDS011;4818;50.860;4.648;2022-12-16T09:14:46;41.03;;;18.20;;
9559;SDS011;4818;50.860;4.648;2022-12-16T09:17:31;36.53;;;18.15;;
9559;SDS011;4818;50.860;4.648;2022-12-16T09:20:16;35.40;;;16.90;;
9559;SDS011;4818;50.860;4.648;2022-12-16T09:23:01;37.53;;;16.50;;
9559;SDS011;4818;50.860;4.648;2022-12-16T09:25:46;38.92;;;17.88;;
9559;SDS011;4818;50.860;4.648;2022-12-16T09:28:30;37.28;;;16.70;;
9559;SDS011;4818;50.860;4.648;2022-12-16T09:31:15;38.38;;;17.95;;
9559;SDS011;4818;50.860;4.648;2022-12-16T09:34:00;43.83;;;18.20;;
9559;SDS011;4818;50.860;4.648;2022-12-16T09:36:45;40.28;;;18.08;;
9559;SDS011;4818;50.860;4.648;2022-12-16T09:39:29;36.33;;;16.33;;
9559;SDS011;4818;50.860;4.648;2022-12-16T09:45:10;39.70;;;17.90;;
9559;SDS011;4818;50.860;4.648;2022-12-16T09:50:42;40.05;;;17.48;;
9559;SDS011;4818;50.860;4.648;2022-12-16T09:53:27;37.40;;;16.80;;
9559;SDS011;4818;50.860;4.648;2022-12-16T09:56:16;34.13;;;15.68;;
9559;SDS011;4818;50.860;4.648;2022-12-16T09:59:05;32.00;;;14.13;;
9559;SDS011;4818;50.860;4.648;2022-12-16T10:01:51;30.73;;;15.37;;
9559;SDS011;4818;50.860;4.648;2022-12-16T10:04:36;32.50;;;15.10;;
9559;SDS011;4818;50.860;4.648;2022-12-16T10:07:21;37.33;;;16.88;;
9559;SDS011;4818;50.860;4.648;2022-12-16T10:13:06;29.85;;;14.15;;
9559;SDS011;4818;50.860;4.648;2022-12-16T10:19:24;34.97;;;14.50;;
9559;SDS011;4818;50.860;4.648;2022-12-16T10:28:23;24.63;;;12.70;;
9559;SDS011;4818;50.860;4.648;2022-12-16T10:31:13;24.15;;;11.57;;
9559;SDS011;4818;50.860;4.648;2022-12-16T10:33:58;26.00;;;12.52;;
9559;SDS011;4818;50.860;4.648;2022-12-16T10:36:43;28.00;;;13.15;;
9559;SDS011;4818;50.860;4.648;2022-12-16T10:39:31;26.58;;;12.43;;
9559;SDS011;4818;50.860;4.648;2022-12-16T10:42:27;25.35;;;14.20;;
9559;SDS011;4818;50.860;4.648;2022-12-16T10:45:17;28.98;;;12.85;;
9559;SDS011;4818;50.860;4.648;2022-12-16T10:48:04;25.83;;;12.68;;
9559;SDS011;4818;50.860;4.648;2022-12-16T10:50:49;27.35;;;14.25;;
9559;SDS011;4818;50.860;4.648;2022-12-16T10:53:34;28.30;;;12.77;;
9559;SDS011;4818;50.860;4.648;2022-12-16T10:59:07;31.33;;;14.77;;
9559;SDS011;4818;50.860;4.648;2022-12-16T11:01:56;29.95;;;15.00;;
9559;SDS011;4818;50.860;4.648;2022-12-16T11:04:41;27.70;;;13.43;;
9559;SDS011;4818;50.860;4.648;2022-12-16T11:07:29;29.27;;;14.75;;
9559;SDS011;4818;50.860;4.648;2022-12-16T11:16:09;35.20;;;15.48;;
9559;SDS011;4818;50.860;4.648;2022-12-16T11:19:17;35.63;;;16.10;;
9559;SDS011;4818;50.860;4.648;2022-12-16T11:22:06;31.13;;;14.02;;
9559;SDS011;4818;50.860;4.648;2022-12-16T11:28:14;28.60;;;13.93;;
9559;SDS011;4818;50.860;4.648;2022-12-16T11:31:02;28.48;;;15.38;;
9559;SDS011;4818;50.860;4.648;2022-12-16T11:34:08;33.85;;;15.07;;
9559;SDS011;4818;50.860;4.648;2022-12-16T11:36:53;34.08;;;15.45;;
9559;SDS011;4818;50.860;4.648;2022-12-16T11:39:38;33.15;;;15.48;;
9559;SDS011;4818;50.860;4.648;2022-12-16T11:42:24;30.75;;;14.95;;
9559;SDS011;4818;50.860;4.648;2022-12-16T11:45:12;32.33;;;15.95;;
9559;SDS011;4818;50.860;4.648;2022-12-16T11:48:00;32.20;;;15.63;;
9559;SDS011;4818;50.860;4.648;2022-12-16T11:50:48;31.40;;;14.82;;
9559;SDS011;4818;50.860;4.648;2022-12-16T11:53:42;31.55;;;14.48;;
9559;SDS011;4818;50.860;4.648;2022-12-16T11:56:31;27.00;;;13.88;;
9559;SDS011;4818;50.860;4.648;2022-12-16T11:59:25;28.10;;;14.48;;
9559;SDS011;4818;50.860;4.648;2022-12-16T12:02:15;31.08;;;14.43;;
9559;SDS011;4818;50.860;4.648;2022-12-16T12:05:02;32.28;;;15.30;;
9559;SDS011;4818;50.860;4.648;2022-12-16T12:07:51;31.23;;;15.55;;
9559;SDS011;4818;50.860;4.648;2022-12-16T12:17:05;41.30;;;18.77;;
9559;SDS011;4818;50.860;4.648;2022-12-16T12:22:40;37.85;;;18.27;;
9559;SDS011;4818;50.860;4.648;2022-12-16T12:25:41;40.88;;;19.42;;
9559;SDS011;4818;50.860;4.648;2022-12-16T12:31:52;43.83;;;19.88;;
9559;SDS011;4818;50.860;4.648;2022-12-16T12:37:33;41.60;;;19.77;;
9559;SDS011;4818;50.860;4.648;2022-12-16T12:46:09;36.92;;;17.63;;
9559;SDS011;4818;50.860;4.648;2022-12-16T12:48:59;38.80;;;17.83;;
9559;SDS011;4818;50.860;4.648;2022-12-16T12:57:22;38.42;;;18.25;;
9559;SDS011;4818;50.860;4.648;2022-12-16T13:03:00;39.05;;;18.02;;
9559;SDS011;4818;50.860;4.648;2022-12-16T13:05:46;37.05;;;15.88;;
9559;SDS011;4818;50.860;4.648;2022-12-16T13:08:43;38.00;;;17.35;;
9559;SDS011;4818;50.860;4.648;2022-12-16T13:11:28;36.28;;;16.90;;
9559;SDS011;4818;50.860;4.648;2022-12-16T13:17:16;33.83;;;15.95;;
9559;SDS011;4818;50.860;4.648;2022-12-16T13:20:02;36.45;;;15.73;;
9559;SDS011;4818;50.860;4.648;2022-12-16T13:26:24;32.30;;;15.80;;
9559;SDS011;4818;50.860;4.648;2022-12-16T13:29:31;32.03;;;15.93;;
9559;SDS011;4818;50.860;4.648;2022-12-16T13:32:17;28.00;;;14.50;;
9559;SDS011;4818;50.860;4.648;2022-12-16T13:37:50;35.90;;;13.65;;
9559;SDS011;4818;50.860;4.648;2022-12-16T13:55:14;33.90;;;15.20;;
9559;SDS011;4818;50.860;4.648;2022-12-16T13:58:02;28.90;;;13.73;;
9559;SDS011;4818;50.860;4.648;2022-12-16T14:00:53;28.17;;;12.52;;
9559;SDS011;4818;50.860;4.648;2022-12-16T14:03:43;31.85;;;13.18;;
9559;SDS011;4818;50.860;4.648;2022-12-16T14:06:28;31.33;;;13.35;;
9559;SDS011;4818;50.860;4.648;2022-12-16T14:09:28;29.15;;;12.93;;
9559;SDS011;4818;50.860;4.648;2022-12-16T14:12:19;28.40;;;13.63;;
9559;SDS011;4818;50.860;4.648;2022-12-16T14:15:13;26.63;;;12.00;;
9559;SDS011;4818;50.860;4.648;2022-12-16T14:18:02;31.63;;;13.60;;
9559;SDS011;4818;50.860;4.648;2022-12-16T14:20:57;24.87;;;11.50;;
9559;SDS011;4818;50.860;4.648;2022-12-16T14:23:51;25.17;;;12.05;;
9559;SDS011;4818;50.860;4.648;2022-12-16T14:26:37;26.50;;;12.05;;
9559;SDS011;4818;50.860;4.648;2022-12-16T14:35:11;26.17;;;11.50;;
9559;SDS011;4818;50.860;4.648;2022-12-16T14:37:56;28.38;;;12.98;;
9559;SDS011;4818;50.860;4.648;2022-12-16T14:40:41;29.67;;;11.68;;
9559;SDS011;4818;50.860;4.648;2022-12-16T14:43:26;24.38;;;11.15;;
9559;SDS011;4818;50.860;4.648;2022-12-16T14:46:22;22.42;;;11.30;;
9559;SDS011;4818;50.860;4.648;2022-12-16T14:49:16;28.92;;;11.13;;
9559;SDS011;4818;50.860;4.648;2022-12-16T14:52:01;23.58;;;10.70;;
9559;SDS011;4818;50.860;4.648;2022-12-16T14:54:46;31.40;;;11.30;;
9559;SDS011;4818;50.860;4.648;2022-12-16T14:57:32;26.65;;;11.60;;
9559;SDS011;4818;50.860;4.648;2022-12-16T15:00:18;24.92;;;11.00;;
9559;SDS011;4818;50.860;4.648;2022-12-16T15:05:48;27.10;;;11.88;;
9559;SDS011;4818;50.860;4.648;2022-12-16T15:08:34;26.13;;;11.82;;
9559;SDS011;4818;50.860;4.648;2022-12-16T15:11:20;29.17;;;11.95;;
9559;SDS011;4818;50.860;4.648;2022-12-16T15:14:08;25.30;;;10.80;;
9559;SDS011;4818;50.860;4.648;2022-12-16T15:16:55;25.00;;;12.33;;
9559;SDS011;4818;50.860;4.648;2022-12-16T15:19:42;30.30;;;11.80;;
9559;SDS011;4818;50.860;4.648;2022-12-16T15:22:27;25.45;;;11.77;;
9559;SDS011;4818;50.860;4.648;2022-12-16T15:25:22;30.25;;;13.73;;
9559;SDS011;4818;50.860;4.648;2022-12-16T15:28:24;29.67;;;12.75;;
9559;SDS011;4818;50.860;4.648;2022-12-16T15:31:13;29.27;;;11.85;;
9559;SDS011;4818;50.860;4.648;2022-12-16T15:37:02;36.33;;;13.75;;
9559;SDS011;4818;50.860;4.648;2022-12-16T15:39:47;31.83;;;14.30;;
9559;SDS011;4818;50.860;4.648;2022-12-16T15:42:32;40.00;;;14.00;;
9559;SDS011;4818;50.860;4.648;2022-12-16T15:45:17;30.75;;;13.18;;
9559;SDS011;4818;50.860;4.648;2022-12-16T15:48:22;38.13;;;13.88;;
9559;SDS011;4818;50.860;4.648;2022-12-16T15:54:22;24.92;;;11.95;;
9559;SDS011;4818;50.860;4.648;2022-12-16T16:00:30;28.88;;;12.55;;
9559;SDS011;4818;50.860;4.648;2022-12-16T16:03:22;31.00;;;13.00;;
9559;SDS011;4818;50.860;4.648;2022-12-16T16:06:21;29.60;;;11.35;;
9559;SDS011;4818;50.860;4.648;2022-12-16T16:09:13;27.65;;;12.07;;
9559;SDS011;4818;50.860;4.648;2022-12-16T16:12:09;29.65;;;12.82;;
9559;SDS011;4818;50.860;4.648;2022-12-16T16:14:54;25.50;;;11.80;;
9559;SDS011;4818;50.860;4.648;2022-12-16T16:17:39;29.35;;;13.07;;
9559;SDS011;4818;50.860;4.648;2022-12-16T16:20:24;29.92;;;13.25;;
9559;SDS011;4818;50.860;4.648;2022-12-16T16:23:09;30.92;;;12.68;;
9559;SDS011;4818;50.860;4.648;2022-12-16T16:25:54;30.42;;;14.02;;
9559;SDS011;4818;50.860;4.648;2022-12-16T16:28:39;31.25;;;12.50;;
9559;SDS011;4818;50.860;4.648;2022-12-16T16:31:24;27.95;;;13.20;;
9559;SDS011;4818;50.860;4.648;2022-12-16T16:34:09;31.75;;;13.25;;
9559;SDS011;4818;50.860;4.648;2022-12-16T16:36:54;28.30;;;12.07;;
9559;SDS011;4818;50.860;4.648;2022-12-16T16:39:40;31.70;;;13.23;;
9559;SDS011;4818;50.860;4.648;2022-12-16T16:42:25;25.95;;;12.88;;
9559;SDS011;4818;50.860;4.648;2022-12-16T16:45:10;28.00;;;13.10;;
9559;SDS011;4818;50.860;4.648;2022-12-16T16:48:00;30.88;;;14.25;;
9559;SDS011;4818;50.860;4.648;2022-12-16T16:50:46;31.63;;;13.07;;
9559;SDS011;4818;50.860;4.648;2022-12-16T16:53:31;24.30;;;11.82;;
9559;SDS011;4818;50.860;4.648;2022-12-16T16:56:15;32.35;;;14.13;;
9559;SDS011;4818;50.860;4.648;2022-12-16T16:59:01;29.33;;;12.77;;
9559;SDS011;4818;50.860;4.648;2022-12-16T17:01:45;30.52;;;13.13;;
9559;SDS011;4818;50.860;4.648;2022-12-16T17:04:30;32.78;;;15.40;;
9559;SDS011;4818;50.860;4.648;2022-12-16T17:07:15;41.72;;;15.00;;
9559;SDS011;4818;50.860;4.648;2022-12-16T17:09:59;32.40;;;14.02;;
9559;SDS011;4818;50.860;4.648;2022-12-16T17:12:44;30.15;;;14.25;;
9559;SDS011;4818;50.860;4.648;2022-12-16T17:15:31;40.15;;;15.75;;
9559;SDS011;4818;50.860;4.648;2022-12-16T17:18:17;31.77;;;15.17;;
9559;SDS011;4818;50.860;4.648;2022-12-16T17:21:02;37.33;;;14.13;;
9559;SDS011;4818;50.860;4.648;2022-12-16T17:23:47;33.13;;;14.23;;
9559;SDS011;4818;50.860;4.648;2022-12-16T17:26:32;38.83;;;14.73;;
9559;SDS011;4818;50.860;4.648;2022-12-16T17:29:18;31.75;;;14.32;;
9559;SDS011;4818;50.860;4.648;2022-12-16T17:32:03;31.75;;;13.75;;
9559;SDS011;4818;50.860;4.648;2022-12-16T17:34:52;32.20;;;13.93;;
9559;SDS011;4818;50.860;4.648;2022-12-16T17:37:37;31.38;;;15.20;;
9559;SDS011;4818;50.860;4.648;2022-12-16T17:40:22;32.47;;;15.13;;
9559;SDS011;4818;50.860;4.648;2022-12-16T17:43:07;35.50;;;16.05;;
9559;SDS011;4818;50.860;4.648;2022-12-16T17:46:01;32.10;;;14.65;;
9559;SDS011;4818;50.860;4.648;2022-12-16T17:48:53;32.33;;;15.38;;
9559;SDS011;4818;50.860;4.648;2022-12-16T17:51:38;34.15;;;16.00;;
9559;SDS011;4818;50.860;4.648;2022-12-16T17:54:23;34.63;;;15.65;;
9559;SDS011;4818;50.860;4.648;2022-12-16T17:57:08;39.60;;;18.45;;
9559;SDS011;4818;50.860;4.648;2022-12-16T17:59:52;39.38;;;18.08;;
9559;SDS011;4818;50.860;4.648;2022-12-16T18:02:37;42.67;;;17.00;;
9559;SDS011;4818;50.860;4.648;2022-12-16T18:05:22;42.30;;;17.95;;
9559;SDS011;4818;50.860;4.648;2022-12-16T18:08:06;42.80;;;16.63;;
9559;SDS011;4818;50.860;4.648;2022-12-16T18:10:52;41.50;;;17.90;;
9559;SDS011;4818;50.860;4.648;2022-12-16T18:13:37;43.03;;;16.83;;
9559;SDS011;4818;50.860;4.648;2022-12-16T18:16:21;41.00;;;16.98;;
9559;SDS011;4818;50.860;4.648;2022-12-16T18:19:06;41.83;;;19.38;;
9559;SDS011;4818;50.860;4.648;2022-12-16T18:21:50;32.92;;;15.32;;